createdAt,value
2023-04-30T00:00:12.146Z,100234.58
2023-04-30T00:03:23.988Z,100232.30
2023-04-30T00:06:07.125Z,100230.65
2023-04-30T00:08:56.696Z,100231.91
2023-04-30T00:11:44.747Z,100229.69
2023-04-30T00:14:33.732Z,100229.81
2023-04-30T00:17:24.137Z,100231.93
2023-04-30T00:20:15.621Z,100232.45
2023-04-30T00:23:04.911Z,100232.73
2023-04-30T00:25:54.107Z,100231.69
2023-04-30T00:28:43.465Z,100234.73
2023-04-30T00:31:32.963Z,100235.20
2023-04-30T00:34:24.462Z,100240.61
2023-04-30T00:37:13.434Z,100240.87
2023-04-30T00:40:03.277Z,100240.95
2023-04-30T00:42:55.206Z,100243.67
2023-04-30T00:45:44.800Z,100246.80
2023-04-30T00:48:34.942Z,100246.20
2023-04-30T00:51:26.560Z,100250.80
2023-04-30T00:54:16.622Z,100255.77
2023-04-30T00:59:57.025Z,100250.19
2023-04-30T01:02:47.422Z,100252.67
2023-04-30T01:05:36.816Z,100252.56
2023-04-30T01:08:26.667Z,100250.27
2023-04-30T01:11:29.018Z,100250.27
2023-04-30T01:14:27.667Z,100248.44
2023-04-30T01:17:23.768Z,100247.61
2023-04-30T01:20:15.346Z,100249.48
2023-04-30T01:23:34.592Z,100251.88
2023-04-30T01:26:46.139Z,100254.42
2023-04-30T01:29:36.818Z,100257.16
2023-04-30T01:32:26.827Z,100261.84
2023-04-30T01:35:16.803Z,100259.55
2023-04-30T01:38:16.108Z,100261.80
2023-04-30T01:41:09.264Z,100260.73
2023-04-30T01:44:12.870Z,100258.41
2023-04-30T01:47:07.502Z,100263.45
2023-04-30T01:50:10.591Z,100262.58
2023-04-30T01:53:02.594Z,100263.02
2023-04-30T01:55:59.841Z,100267.62
2023-04-30T01:58:54.297Z,100270.35
2023-04-30T02:01:44.227Z,100271.04
2023-04-30T02:04:34.326Z,100270.26
2023-04-30T02:07:38.063Z,100273.90
2023-04-30T02:10:29.802Z,100277.10
2023-04-30T02:13:19.506Z,100275.45
2023-04-30T02:16:09.295Z,100279.05
2023-04-30T02:18:58.753Z,100278.54
2023-04-30T02:21:47.863Z,100280.69
2023-04-30T02:24:37.735Z,100279.74
2023-04-30T02:27:30.460Z,100284.72
2023-04-30T02:30:20.451Z,100287.50
2023-04-30T02:33:11.890Z,100288.83
2023-04-30T02:36:01.504Z,100290.05
2023-04-30T02:38:51.784Z,100299.55
2023-04-30T02:41:43.117Z,100298.03
2023-04-30T02:44:32.291Z,100302.02
2023-04-30T02:47:21.952Z,100307.33
2023-04-30T02:50:11.977Z,100311.99
2023-04-30T02:53:01.395Z,100313.09
2023-04-30T02:55:52.223Z,100317.98
2023-04-30T02:58:41.506Z,100320.95
2023-04-30T03:01:30.653Z,100324.52
2023-04-30T03:04:20.061Z,100327.52
2023-04-30T03:07:09.214Z,100327.58
2023-04-30T03:09:58.999Z,100330.56
2023-04-30T03:12:47.925Z,100335.98
2023-04-30T03:15:37.770Z,100337.00
2023-04-30T03:18:28.445Z,100339.12
2023-04-30T03:21:18.517Z,100344.42
2023-04-30T03:24:08.158Z,100347.85
2023-04-30T03:26:57.887Z,100351.65
2023-04-30T03:29:48.378Z,100351.00
2023-04-30T03:32:38.289Z,100353.36
2023-04-30T03:35:27.117Z,100357.75
2023-04-30T03:38:16.667Z,100364.70
2023-04-30T03:41:06.080Z,100370.40
2023-04-30T03:43:55.703Z,100374.06
2023-04-30T03:46:47.656Z,100383.04
2023-04-30T03:49:37.158Z,100393.51
2023-04-30T03:52:27.024Z,100403.77
2023-04-30T03:55:08.116Z,100404.51
2023-04-30T03:57:57.889Z,100411.61
2023-04-30T04:00:47.828Z,100416.27
2023-04-30T04:03:37.151Z,100419.38
2023-04-30T04:06:27.224Z,100426.80
2023-04-30T04:09:16.795Z,100432.30
2023-04-30T04:12:06.823Z,100441.09
2023-04-30T04:14:56.231Z,100443.02
2023-04-30T04:17:45.530Z,100449.52
2023-04-30T04:20:36.132Z,100461.50
2023-04-30T04:23:25.299Z,100466.73
2023-04-30T04:26:15.966Z,100470.52
2023-04-30T04:29:05.364Z,100475.24
2023-04-30T04:31:55.283Z,100480.16
2023-04-30T04:34:45.300Z,100481.96
2023-04-30T04:37:36.021Z,100487.13
2023-04-30T04:40:24.933Z,100490.86
2023-04-30T04:43:14.322Z,100494.02
2023-04-30T04:46:04.818Z,100498.89
2023-04-30T04:48:54.628Z,100505.20
2023-04-30T04:51:43.933Z,100508.29
2023-04-30T04:54:34.782Z,100509.52
2023-04-30T04:57:25.449Z,100516.34
2023-04-30T05:00:16.614Z,100521.40
2023-04-30T05:03:05.853Z,100524.71
2023-04-30T05:05:58.544Z,100526.30
2023-04-30T05:08:48.398Z,100530.70
2023-04-30T05:11:41.533Z,100532.08
2023-04-30T05:14:30.842Z,100537.40
2023-04-30T05:17:20.185Z,100541.98
2023-04-30T05:20:12.984Z,100550.61
2023-04-30T05:23:03.874Z,100553.42
2023-04-30T05:25:54.830Z,100555.55
2023-04-30T05:28:45.918Z,100556.91
2023-04-30T05:31:37.062Z,100560.31
2023-04-30T05:34:28.082Z,100562.51
2023-04-30T05:37:20.263Z,100566.98
2023-04-30T05:40:11.986Z,100571.84
2023-04-30T05:42:52.612Z,100577.02
2023-04-30T05:45:42.276Z,100581.73
2023-04-30T05:48:31.974Z,100581.94
2023-04-30T05:51:23.621Z,100585.61
2023-04-30T05:54:12.776Z,100588.58
2023-04-30T05:57:03.979Z,100592.32
2023-04-30T05:59:54.311Z,100596.58
2023-04-30T06:02:40.670Z,100601.06
2023-04-30T06:05:30.154Z,100600.63
2023-04-30T06:08:20.086Z,100602.63
2023-04-30T06:11:09.215Z,100606.66
2023-04-30T06:13:59.216Z,100612.66
2023-04-30T06:16:48.588Z,100611.60
2023-04-30T06:19:38.217Z,100613.02
2023-04-30T06:22:28.729Z,100618.36
2023-04-30T06:25:18.372Z,100623.41
2023-04-30T06:28:09.408Z,100623.91
2023-04-30T06:30:59.057Z,100628.48
2023-04-30T06:33:48.347Z,100624.65
2023-04-30T06:36:37.773Z,100624.50
2023-04-30T06:39:27.038Z,100621.80
2023-04-30T06:42:16.193Z,100617.77
2023-04-30T06:45:07.233Z,100617.29
2023-04-30T06:47:57.134Z,100614.88
2023-04-30T06:50:46.990Z,100618.10
2023-04-30T06:53:36.235Z,100618.38
2023-04-30T06:56:27.016Z,100622.82
2023-04-30T06:59:17.489Z,100622.98
2023-04-30T07:02:10.382Z,100628.69
2023-04-30T07:04:59.871Z,100629.77
2023-04-30T07:07:49.772Z,100633.10
2023-04-30T07:10:40.265Z,100634.37
2023-04-30T07:13:29.792Z,100638.16
2023-04-30T07:16:18.984Z,100639.16
2023-04-30T07:19:08.160Z,100641.20
2023-04-30T07:21:57.696Z,100643.09
2023-04-30T07:24:47.491Z,100644.60
2023-04-30T07:27:37.904Z,100651.13
2023-04-30T07:30:20.311Z,100653.61
2023-04-30T07:33:10.116Z,100652.75
2023-04-30T07:36:00.186Z,100655.27
2023-04-30T07:38:42.596Z,100653.64
2023-04-30T07:41:34.120Z,100660.98
2023-04-30T07:44:24.440Z,100667.15
2023-04-30T07:47:18.037Z,100670.88
2023-04-30T07:50:08.890Z,100678.09
2023-04-30T07:52:58.390Z,100671.14
2023-04-30T07:55:47.974Z,100668.07
2023-04-30T07:58:37.443Z,100673.69
2023-04-30T08:01:27.726Z,100676.11
2023-04-30T08:04:16.951Z,100677.14
2023-04-30T08:07:07.154Z,100677.95
2023-04-30T08:09:57.425Z,100680.69
2023-04-30T08:12:39.065Z,100679.34
2023-04-30T08:15:30.636Z,100684.71
2023-04-30T08:18:20.544Z,100688.89
2023-04-30T08:21:10.465Z,100685.91
2023-04-30T08:23:54.060Z,100691.60
2023-04-30T08:26:43.949Z,100688.38
2023-04-30T08:29:33.420Z,100696.90
2023-04-30T08:32:26.147Z,100699.81
2023-04-30T08:35:16.906Z,100698.41
2023-04-30T08:38:05.666Z,100701.77
2023-04-30T08:41:05.977Z,100704.58
2023-04-30T08:44:00.809Z,100706.00
2023-04-30T08:46:44.099Z,100710.67
2023-04-30T08:49:33.560Z,100714.11
2023-04-30T08:52:25.518Z,100713.77
2023-04-30T08:55:16.106Z,100714.20
2023-04-30T08:58:05.741Z,100717.46
2023-04-30T09:00:55.047Z,100721.13
2023-04-30T09:03:44.184Z,100724.00
2023-04-30T09:06:33.601Z,100725.14
2023-04-30T09:09:27.584Z,100727.92
2023-04-30T09:12:19.399Z,100728.89
2023-04-30T09:15:11.920Z,100728.88
2023-04-30T09:18:12.147Z,100734.56
2023-04-30T09:21:02.594Z,100735.55
2023-04-30T09:24:02.286Z,100733.33
2023-04-30T09:26:54.707Z,100740.14
2023-04-30T09:29:45.548Z,100743.27
2023-04-30T09:32:34.817Z,100744.99
2023-04-30T09:35:30.782Z,100747.87
2023-04-30T09:38:31.291Z,100747.88
2023-04-30T09:41:26.191Z,100746.89
2023-04-30T09:44:31.813Z,100746.75
2023-04-30T09:47:21.559Z,100738.62
2023-04-30T09:50:14.448Z,100742.73
2023-04-30T09:53:08.244Z,100746.52
2023-04-30T09:56:02.760Z,100740.21
2023-04-30T09:58:53.834Z,100737.92
2023-04-30T10:01:44.222Z,100743.44
2023-04-30T10:04:35.967Z,100736.64
2023-04-30T10:07:31.358Z,100743.67
2023-04-30T10:10:22.252Z,100742.58
2023-04-30T10:13:14.619Z,100740.25
2023-04-30T10:16:12.296Z,100739.89
2023-04-30T10:18:58.274Z,100736.66
2023-04-30T10:21:47.954Z,100737.56
2023-04-30T10:24:37.909Z,100732.98
2023-04-30T10:27:29.151Z,100737.87
2023-04-30T10:30:18.907Z,100739.11
2023-04-30T10:33:19.813Z,100739.36
2023-04-30T10:36:14.758Z,100745.17
2023-04-30T10:38:58.315Z,100748.95
2023-04-30T10:41:48.872Z,100744.14
2023-04-30T10:44:39.381Z,100739.02
2023-04-30T10:47:30.462Z,100740.52
2023-04-30T10:50:24.147Z,100737.10
2023-04-30T10:53:17.737Z,100741.05
2023-04-30T10:56:08.502Z,100744.33
2023-04-30T10:59:01.659Z,100749.85
2023-04-30T11:01:58.496Z,100741.79
2023-04-30T11:05:11.212Z,100741.02
2023-04-30T11:08:00.890Z,100746.64
2023-04-30T11:11:01.097Z,100746.83
2023-04-30T11:14:01.011Z,100741.50
2023-04-30T11:16:53.392Z,100749.72
2023-04-30T11:19:50.064Z,100745.95
2023-04-30T11:22:39.446Z,100747.88
2023-04-30T11:25:48.192Z,100751.39
2023-04-30T11:28:38.746Z,100753.33
2023-04-30T11:31:37.299Z,100758.78
2023-04-30T11:34:27.252Z,100754.98
2023-04-30T11:37:21.254Z,100752.30
2023-04-30T11:40:12.134Z,100756.71
2023-04-30T11:43:01.097Z,100752.95
2023-04-30T11:46:01.479Z,100756.57
2023-04-30T11:48:50.789Z,100760.13
2023-04-30T11:51:42.120Z,100763.15
2023-04-30T11:54:34.658Z,100764.52
2023-04-30T11:57:25.377Z,100765.23
2023-04-30T12:00:16.936Z,100770.40
2023-04-30T12:03:07.179Z,100770.19
2023-04-30T12:05:57.070Z,100767.04
2023-04-30T12:08:46.235Z,100765.92
2023-04-30T12:11:29.960Z,100773.16
2023-04-30T12:14:19.079Z,100779.73
2023-04-30T12:17:08.329Z,100777.64
2023-04-30T12:19:57.977Z,100773.20
2023-04-30T12:22:47.799Z,100770.77
2023-04-30T12:25:42.490Z,100766.09
2023-04-30T12:28:31.463Z,100768.96
2023-04-30T12:31:21.225Z,100765.34
2023-04-30T12:34:12.343Z,100765.75
2023-04-30T12:37:02.813Z,100768.67
2023-04-30T12:39:55.503Z,100774.19
2023-04-30T12:42:46.463Z,100771.42
2023-04-30T12:45:51.010Z,100769.94
2023-04-30T12:48:45.445Z,100778.73
2023-04-30T12:51:36.121Z,100770.34
2023-04-30T12:54:29.246Z,100769.35
2023-04-30T12:57:18.036Z,100763.98
2023-04-30T13:00:09.937Z,100768.77
2023-04-30T13:02:59.182Z,100764.39
2023-04-30T13:05:49.586Z,100760.91
2023-04-30T13:08:49.692Z,100760.56
2023-04-30T13:11:37.143Z,100763.59
2023-04-30T13:14:17.237Z,100768.57
2023-04-30T13:17:09.125Z,100765.04
2023-04-30T13:19:58.016Z,100765.44
2023-04-30T13:22:46.888Z,100765.92
2023-04-30T13:25:36.231Z,100771.27
2023-04-30T13:28:25.752Z,100773.54
2023-04-30T13:31:14.755Z,100769.95
2023-04-30T13:34:04.445Z,100765.66
2023-04-30T13:36:53.710Z,100761.39
2023-04-30T13:39:45.292Z,100766.05
2023-04-30T13:42:38.758Z,100766.45
2023-04-30T13:45:27.774Z,100766.31
2023-04-30T13:48:17.026Z,100766.18
2023-04-30T13:51:08.664Z,100761.98
2023-04-30T13:53:47.492Z,100760.77
2023-04-30T13:56:37.897Z,100758.20
2023-04-30T13:59:28.263Z,100762.20
2023-04-30T14:02:18.458Z,100768.05
2023-04-30T14:05:09.474Z,100761.69
2023-04-30T14:07:53.926Z,100757.39
2023-04-30T14:10:42.917Z,100762.05
2023-04-30T14:13:31.820Z,100763.49
2023-04-30T14:16:21.847Z,100760.75
2023-04-30T14:19:11.376Z,100760.00
2023-04-30T14:22:01.736Z,100764.41
2023-04-30T14:24:53.219Z,100764.97
2023-04-30T14:27:32.696Z,100770.48
2023-04-30T14:30:22.211Z,100764.06
2023-04-30T14:33:12.257Z,100769.10
2023-04-30T14:36:01.597Z,100773.77
2023-04-30T14:38:50.800Z,100770.77
2023-04-30T14:41:38.624Z,100767.66
2023-04-30T14:44:27.614Z,100775.30
2023-04-30T14:47:17.380Z,100771.44
2023-04-30T14:50:07.398Z,100765.23
2023-04-30T14:52:56.646Z,100772.33
2023-04-30T14:55:45.513Z,100774.40
2023-04-30T14:58:34.431Z,100772.94
2023-04-30T15:01:22.386Z,100778.16
2023-04-30T15:04:11.440Z,100776.36
2023-04-30T15:07:02.135Z,100776.90
2023-04-30T15:09:53.088Z,100775.09
2023-04-30T15:12:43.065Z,100778.65
2023-04-30T15:15:32.260Z,100779.30
2023-04-30T15:18:21.310Z,100778.26
2023-04-30T15:21:04.382Z,100780.27
2023-04-30T15:23:54.701Z,100786.04
2023-04-30T15:26:45.687Z,100783.29
2023-04-30T15:29:34.523Z,100781.57
2023-04-30T15:32:25.071Z,100783.75
2023-04-30T15:35:14.724Z,100790.58
2023-04-30T15:38:03.924Z,100787.41
2023-04-30T15:40:55.536Z,100784.98
2023-04-30T15:43:44.532Z,100777.66
2023-04-30T15:46:35.858Z,100782.27
2023-04-30T15:49:27.353Z,100789.68
2023-04-30T15:52:17.143Z,100793.31
2023-04-30T15:55:09.056Z,100791.98
2023-04-30T15:57:57.887Z,100790.53
2023-04-30T16:00:47.072Z,100792.61
2023-04-30T16:03:37.364Z,100791.06
2023-04-30T16:06:29.415Z,100793.95
2023-04-30T16:09:11.897Z,100795.47
2023-04-30T16:12:00.810Z,100788.84
2023-04-30T16:14:51.112Z,100793.74
2023-04-30T16:17:42.594Z,100794.08
2023-04-30T16:20:31.961Z,100792.56
2023-04-30T16:23:21.923Z,100790.20
2023-04-30T16:26:10.954Z,100791.06
2023-04-30T16:29:00.253Z,100792.67
2023-04-30T16:31:49.146Z,100791.20
2023-04-30T16:34:39.417Z,100799.33
2023-04-30T16:37:29.021Z,100802.86
2023-04-30T16:40:19.218Z,100803.61
2023-04-30T16:43:12.302Z,100805.16
2023-04-30T16:46:00.532Z,100806.81
2023-04-30T16:48:49.509Z,100808.58
2023-04-30T16:51:41.407Z,100810.36
2023-04-30T16:54:30.324Z,100810.19
2023-04-30T16:57:18.019Z,100807.90
2023-04-30T17:00:10.879Z,100813.77
2023-04-30T17:03:00.354Z,100812.80
2023-04-30T17:05:48.761Z,100814.47
2023-04-30T17:08:40.010Z,100819.86
2023-04-30T17:11:29.540Z,100822.13
2023-04-30T17:14:18.549Z,100821.80
2023-04-30T17:17:07.769Z,100824.45
2023-04-30T17:19:57.108Z,100822.22
2023-04-30T17:22:46.912Z,100821.77
2023-04-30T17:25:37.576Z,100822.42
2023-04-30T17:28:27.117Z,100819.66
2023-04-30T17:31:15.892Z,100831.04
2023-04-30T17:34:04.033Z,100832.25
2023-04-30T17:36:52.593Z,100834.50
2023-04-30T17:39:40.042Z,100835.05
2023-04-30T17:42:31.409Z,100838.36
2023-04-30T17:45:20.775Z,100838.52
2023-04-30T17:48:10.182Z,100839.54
2023-04-30T17:51:00.340Z,100846.31
2023-04-30T17:53:49.736Z,100853.14
2023-04-30T17:56:38.600Z,100853.73
2023-04-30T17:59:27.841Z,100851.39
2023-04-30T18:02:19.264Z,100859.70
2023-04-30T18:05:09.886Z,100858.83
2023-04-30T18:07:59.643Z,100861.86
2023-04-30T18:10:49.792Z,100865.27
2023-04-30T18:13:39.750Z,100863.45
2023-04-30T18:16:29.427Z,100861.39
2023-04-30T18:19:18.464Z,100863.52
2023-04-30T18:22:07.638Z,100870.94
2023-04-30T18:24:47.738Z,100869.19
2023-04-30T18:27:37.573Z,100871.45
2023-04-30T18:30:31.139Z,100873.79
2023-04-30T18:33:20.857Z,100878.13
2023-04-30T18:36:11.758Z,100877.45
2023-04-30T18:39:00.829Z,100882.44
2023-04-30T18:41:54.275Z,100887.10
2023-04-30T18:44:47.522Z,100889.39
2023-04-30T18:47:37.182Z,100887.64
2023-04-30T18:50:27.818Z,100898.32
2023-04-30T18:53:17.594Z,100899.14
2023-04-30T18:56:07.549Z,100897.93
2023-04-30T18:58:57.555Z,100902.69
2023-04-30T19:01:46.828Z,100904.49
2023-04-30T19:04:37.523Z,100904.13
2023-04-30T19:07:28.264Z,100906.48
2023-04-30T19:10:18.315Z,100908.98
2023-04-30T19:13:08.131Z,100911.00
2023-04-30T19:16:00.049Z,100910.63
2023-04-30T19:18:49.288Z,100916.95
2023-04-30T19:21:37.095Z,100916.61
2023-04-30T19:24:29.227Z,100917.98
2023-04-30T19:27:18.431Z,100917.05
2023-04-30T19:30:10.559Z,100917.67
2023-04-30T19:32:59.379Z,100921.04
2023-04-30T19:35:49.548Z,100923.71
2023-04-30T19:38:38.601Z,100922.52
2023-04-30T19:41:27.245Z,100922.21
2023-04-30T19:44:19.378Z,100929.00
2023-04-30T19:47:08.516Z,100927.91
2023-04-30T19:49:58.886Z,100933.55
2023-04-30T19:52:48.081Z,100939.20
2023-04-30T19:55:37.194Z,100936.46
2023-04-30T19:58:25.453Z,100937.84
2023-04-30T20:01:14.533Z,100932.63
2023-04-30T20:04:07.501Z,100931.46
2023-04-30T20:06:57.835Z,100936.75
2023-04-30T20:09:47.509Z,100936.47
2023-04-30T20:12:38.147Z,100937.50
2023-04-30T20:15:27.569Z,100938.71
2023-04-30T20:18:16.676Z,100942.30
2023-04-30T20:21:06.528Z,100941.55
2023-04-30T20:23:55.423Z,100941.47
2023-04-30T20:26:45.051Z,100943.65
2023-04-30T20:29:35.548Z,100944.77
2023-04-30T20:32:27.269Z,100943.34
2023-04-30T20:35:16.188Z,100947.19
2023-04-30T20:38:07.878Z,100949.14
2023-04-30T20:40:53.451Z,100947.73
2023-04-30T20:43:42.422Z,100949.46
2023-04-30T20:46:31.986Z,100952.27
2023-04-30T20:49:21.198Z,100952.72
2023-04-30T20:52:11.634Z,100955.55
2023-04-30T20:55:01.047Z,100957.72
2023-04-30T20:57:49.999Z,100956.84
2023-04-30T21:00:40.802Z,100956.60
2023-04-30T21:03:32.308Z,100957.36
2023-04-30T21:06:20.008Z,100958.81
2023-04-30T21:09:08.131Z,100960.92
2023-04-30T21:11:58.038Z,100961.97
2023-04-30T21:14:47.144Z,100965.16
2023-04-30T21:17:36.353Z,100966.28
2023-04-30T21:20:26.658Z,100973.35
2023-04-30T21:23:15.695Z,100975.59
2023-04-30T21:26:04.978Z,100977.88
2023-04-30T21:28:52.948Z,100981.27
2023-04-30T21:31:50.675Z,100988.35
2023-04-30T21:34:39.650Z,100984.01
2023-04-30T21:37:28.014Z,100990.30
2023-04-30T21:40:16.958Z,100988.47
2023-04-30T21:43:06.696Z,100996.89
2023-04-30T21:46:02.345Z,100995.38
2023-04-30T21:48:52.714Z,101004.00
2023-04-30T21:51:41.914Z,101011.02
2023-04-30T21:54:31.146Z,101016.09
2023-04-30T21:57:21.629Z,101019.32
2023-04-30T22:00:13.891Z,101021.35
2023-04-30T22:03:03.483Z,101026.02
2023-04-30T22:05:55.316Z,101024.94
2023-04-30T22:08:44.061Z,101028.66
2023-04-30T22:11:32.305Z,101030.75
2023-04-30T22:14:25.178Z,101031.24
2023-04-30T22:17:14.025Z,101031.46
2023-04-30T22:20:09.309Z,101037.15
2023-04-30T22:22:58.397Z,101044.04
2023-04-30T22:25:47.786Z,101052.72
2023-04-30T22:28:37.454Z,101053.91
2023-04-30T22:31:28.692Z,101055.73
2023-04-30T22:34:19.071Z,101059.41
2023-04-30T22:37:09.984Z,101063.98
2023-04-30T22:40:02.929Z,101065.00
2023-04-30T22:42:54.014Z,101063.11
2023-04-30T22:45:43.674Z,101066.33
2023-04-30T22:48:32.994Z,101069.05
2023-04-30T22:51:23.026Z,101066.95
2023-04-30T22:54:12.667Z,101066.77
2023-04-30T22:57:02.504Z,101068.56
2023-04-30T23:00:02.399Z,101065.89
2023-04-30T23:02:51.811Z,101067.27
2023-04-30T23:05:41.173Z,101068.60
2023-04-30T23:08:30.644Z,101069.03
2023-04-30T23:11:20.965Z,101071.83
2023-04-30T23:14:10.978Z,101075.25
2023-04-30T23:17:00.922Z,101076.86
2023-04-30T23:19:50.692Z,101077.23
2023-04-30T23:22:39.782Z,101077.67
2023-04-30T23:25:28.831Z,101076.13
2023-04-30T23:28:16.982Z,101077.33
2023-04-30T23:31:06.127Z,101076.14
2023-04-30T23:33:55.304Z,101075.39
2023-04-30T23:36:45.457Z,101076.40
2023-04-30T23:39:33.406Z,101076.64
2023-04-30T23:42:22.679Z,101078.73
2023-04-30T23:45:12.177Z,101081.05
2023-04-30T23:48:01.241Z,101083.44
2023-04-30T23:51:00.013Z,101080.02
2023-04-30T23:53:49.452Z,101084.14
2023-04-30T23:56:41.697Z,101086.48
2023-04-30T23:59:30.559Z,101087.58
